sensor_id;sensor_type;location;lat;lon;timestamp;P1;durP1;ratioP1;P2;durP2;ratioP2
31482;SDS011;18103;52.246;8.052;2023-04-01T00:01:10;2.90;;;2.23;;
31482;SDS011;18103;52.246;8.052;2023-04-01T00:03:41;4.57;;;2.33;;
31482;SDS011;18103;52.246;8.052;2023-04-01T00:06:07;2.90;;;1.73;;
31482;SDS011;18103;52.246;8.052;2023-04-01T00:08:32;6.67;;;2.17;;
31482;SDS011;18103;52.246;8.052;2023-04-01T00:10:58;3.40;;;2.40;;
31482;SDS011;18103;52.246;8.052;2023-04-01T00:13:26;7.50;;;2.20;;
31482;SDS011;18103;52.246;8.052;2023-04-01T00:15:52;7.93;;;2.70;;
31482;SDS011;18103;52.246;8.052;2023-04-01T00:18:18;3.77;;;2.50;;
31482;SDS011;18103;52.246;8.052;2023-04-01T00:20:47;8.03;;;2.73;;
31482;SDS011;18103;52.246;8.052;2023-04-01T00:23:14;7.40;;;2.60;;
31482;SDS011;18103;52.246;8.052;2023-04-01T00:25:41;11.10;;;2.80;;
31482;SDS011;18103;52.246;8.052;2023-04-01T00:28:07;5.87;;;2.40;;
31482;SDS011;18103;52.246;8.052;2023-04-01T00:30:32;4.83;;;2.93;;
31482;SDS011;18103;52.246;8.052;2023-04-01T00:33:01;2.63;;;1.83;;
31482;SDS011;18103;52.246;8.052;2023-04-01T00:35:29;6.20;;;2.30;;
31482;SDS011;18103;52.246;8.052;2023-04-01T00:37:54;4.93;;;2.43;;
31482;SDS011;18103;52.246;8.052;2023-04-01T00:40:28;8.37;;;2.47;;
31482;SDS011;18103;52.246;8.052;2023-04-01T00:42:59;4.70;;;1.90;;
31482;SDS011;18103;52.246;8.052;2023-04-01T00:45:27;2.77;;;2.07;;
31482;SDS011;18103;52.246;8.052;2023-04-01T00:48:10;4.73;;;2.43;;
31482;SDS011;18103;52.246;8.052;2023-04-01T00:50:43;3.87;;;2.03;;
31482;SDS011;18103;52.246;8.052;2023-04-01T00:53:13;4.13;;;1.50;;
31482;SDS011;18103;52.246;8.052;2023-04-01T00:55:41;3.93;;;2.17;;
31482;SDS011;18103;52.246;8.052;2023-04-01T00:58:14;3.30;;;2.30;;
31482;SDS011;18103;52.246;8.052;2023-04-01T01:00:46;2.67;;;1.53;;
31482;SDS011;18103;52.246;8.052;2023-04-01T01:03:13;3.37;;;1.87;;
31482;SDS011;18103;52.246;8.052;2023-04-01T01:05:46;5.77;;;2.20;;
31482;SDS011;18103;52.246;8.052;2023-04-01T01:11:18;7.93;;;2.07;;
31482;SDS011;18103;52.246;8.052;2023-04-01T01:16:51;2.40;;;2.00;;
31482;SDS011;18103;52.246;8.052;2023-04-01T01:25:17;4.73;;;2.60;;
31482;SDS011;18103;52.246;8.052;2023-04-01T01:28:20;5.23;;;3.33;;
31482;SDS011;18103;52.246;8.052;2023-04-01T01:31:16;4.17;;;2.20;;
31482;SDS011;18103;52.246;8.052;2023-04-01T01:36:29;2.27;;;1.47;;
31482;SDS011;18103;52.246;8.052;2023-04-01T01:38:59;3.90;;;2.43;;
31482;SDS011;18103;52.246;8.052;2023-04-01T01:41:28;1.00;;;0.93;;
31482;SDS011;18103;52.246;8.052;2023-04-01T01:43:56;2.30;;;1.50;;
31482;SDS011;18103;52.246;8.052;2023-04-01T01:46:27;5.10;;;2.00;;
31482;SDS011;18103;52.246;8.052;2023-04-01T01:48:55;1.57;;;1.47;;
31482;SDS011;18103;52.246;8.052;2023-04-01T01:51:22;1.97;;;1.67;;
31482;SDS011;18103;52.246;8.052;2023-04-01T01:53:51;2.03;;;1.50;;
31482;SDS011;18103;52.246;8.052;2023-04-01T01:56:17;4.57;;;1.73;;
31482;SDS011;18103;52.246;8.052;2023-04-01T01:58:50;1.33;;;1.20;;
31482;SDS011;18103;52.246;8.052;2023-04-01T02:01:23;1.87;;;1.10;;
31482;SDS011;18103;52.246;8.052;2023-04-01T02:03:51;1.43;;;1.13;;
31482;SDS011;18103;52.246;8.052;2023-04-01T02:06:23;7.30;;;1.60;;
31482;SDS011;18103;52.246;8.052;2023-04-01T02:11:36;1.93;;;1.00;;
31482;SDS011;18103;52.246;8.052;2023-04-01T02:14:16;1.60;;;1.03;;
31482;SDS011;18103;52.246;8.052;2023-04-01T02:16:51;2.77;;;1.13;;
31482;SDS011;18103;52.246;8.052;2023-04-01T02:19:26;3.90;;;0.90;;
31482;SDS011;18103;52.246;8.052;2023-04-01T02:21:59;0.60;;;0.60;;
31482;SDS011;18103;52.246;8.052;2023-04-01T02:24:30;3.13;;;1.03;;
31482;SDS011;18103;52.246;8.052;2023-04-01T02:27:00;5.73;;;0.87;;
31482;SDS011;18103;52.246;8.052;2023-04-01T02:29:25;2.90;;;0.90;;
31482;SDS011;18103;52.246;8.052;2023-04-01T02:31:52;5.37;;;1.17;;
31482;SDS011;18103;52.246;8.052;2023-04-01T02:34:20;4.63;;;1.30;;
31482;SDS011;18103;52.246;8.052;2023-04-01T02:36:47;6.73;;;1.60;;
31482;SDS011;18103;52.246;8.052;2023-04-01T02:39:16;2.47;;;1.40;;
31482;SDS011;18103;52.246;8.052;2023-04-01T02:41:42;5.47;;;1.87;;
31482;SDS011;18103;52.246;8.052;2023-04-01T02:44:10;3.00;;;1.70;;
31482;SDS011;18103;52.246;8.052;2023-04-01T02:46:37;1.20;;;0.83;;
31482;SDS011;18103;52.246;8.052;2023-04-01T02:49:05;1.40;;;1.27;;
31482;SDS011;18103;52.246;8.052;2023-04-01T02:51:31;1.53;;;1.10;;
31482;SDS011;18103;52.246;8.052;2023-04-01T02:53:57;1.93;;;0.77;;
31482;SDS011;18103;52.246;8.052;2023-04-01T02:56:22;3.87;;;1.13;;
31482;SDS011;18103;52.246;8.052;2023-04-01T02:58:51;1.73;;;1.13;;
31482;SDS011;18103;52.246;8.052;2023-04-01T03:01:16;2.63;;;1.30;;
31482;SDS011;18103;52.246;8.052;2023-04-01T03:03:42;3.60;;;1.10;;
31482;SDS011;18103;52.246;8.052;2023-04-01T03:06:08;5.17;;;2.30;;
31482;SDS011;18103;52.246;8.052;2023-04-01T03:08:37;2.90;;;1.70;;
31482;SDS011;18103;52.246;8.052;2023-04-01T03:11:03;2.83;;;1.50;;
31482;SDS011;18103;52.246;8.052;2023-04-01T03:13:29;3.10;;;1.53;;
31482;SDS011;18103;52.246;8.052;2023-04-01T03:15:54;5.33;;;1.33;;
31482;SDS011;18103;52.246;8.052;2023-04-01T03:18:20;3.57;;;1.03;;
31482;SDS011;18103;52.246;8.052;2023-04-01T03:20:45;4.20;;;1.83;;
31482;SDS011;18103;52.246;8.052;2023-04-01T03:23:11;2.40;;;0.77;;
31482;SDS011;18103;52.246;8.052;2023-04-01T03:25:37;2.60;;;1.13;;
31482;SDS011;18103;52.246;8.052;2023-04-01T03:28:06;1.50;;;1.37;;
31482;SDS011;18103;52.246;8.052;2023-04-01T03:30:33;0.90;;;0.90;;
31482;SDS011;18103;52.246;8.052;2023-04-01T03:32:59;5.87;;;1.33;;
31482;SDS011;18103;52.246;8.052;2023-04-01T03:35:25;10.03;;;1.53;;
31482;SDS011;18103;52.246;8.052;2023-04-01T03:37:53;2.03;;;0.97;;
31482;SDS011;18103;52.246;8.052;2023-04-01T03:40:24;3.97;;;1.40;;
31482;SDS011;18103;52.246;8.052;2023-04-01T03:42:52;2.20;;;1.03;;
31482;SDS011;18103;52.246;8.052;2023-04-01T03:45:21;2.63;;;0.97;;
31482;SDS011;18103;52.246;8.052;2023-04-01T03:47:46;2.70;;;0.63;;
31482;SDS011;18103;52.246;8.052;2023-04-01T03:50:11;1.43;;;1.33;;
31482;SDS011;18103;52.246;8.052;2023-04-01T03:52:42;1.23;;;0.90;;
31482;SDS011;18103;52.246;8.052;2023-04-01T03:55:07;0.93;;;0.87;;
31482;SDS011;18103;52.246;8.052;2023-04-01T03:57:37;0.97;;;0.80;;
31482;SDS011;18103;52.246;8.052;2023-04-01T04:00:02;0.40;;;0.40;;
31482;SDS011;18103;52.246;8.052;2023-04-01T04:02:30;0.77;;;0.77;;
31482;SDS011;18103;52.246;8.052;2023-04-01T04:04:56;2.67;;;0.97;;
31482;SDS011;18103;52.246;8.052;2023-04-01T04:07:21;1.23;;;1.10;;
31482;SDS011;18103;52.246;8.052;2023-04-01T04:09:51;0.83;;;0.60;;
31482;SDS011;18103;52.246;8.052;2023-04-01T04:12:16;1.27;;;1.17;;
31482;SDS011;18103;52.246;8.052;2023-04-01T04:14:44;0.53;;;0.50;;
31482;SDS011;18103;52.246;8.052;2023-04-01T04:17:12;1.83;;;1.00;;
31482;SDS011;18103;52.246;8.052;2023-04-01T04:19:41;0.90;;;0.80;;
31482;SDS011;18103;52.246;8.052;2023-04-01T04:22:07;0.47;;;0.47;;
31482;SDS011;18103;52.246;8.052;2023-04-01T04:24:35;1.17;;;0.80;;
31482;SDS011;18103;52.246;8.052;2023-04-01T04:27:01;1.80;;;0.60;;
31482;SDS011;18103;52.246;8.052;2023-04-01T04:29:27;0.47;;;0.47;;
31482;SDS011;18103;52.246;8.052;2023-04-01T04:31:54;3.40;;;0.60;;
31482;SDS011;18103;52.246;8.052;2023-04-01T04:34:20;2.10;;;0.70;;
31482;SDS011;18103;52.246;8.052;2023-04-01T04:36:47;1.50;;;0.57;;
31482;SDS011;18103;52.246;8.052;2023-04-01T04:39:15;1.67;;;0.60;;
31482;SDS011;18103;52.246;8.052;2023-04-01T04:41:40;0.80;;;0.60;;
31482;SDS011;18103;52.246;8.052;2023-04-01T04:44:06;0.37;;;0.33;;
31482;SDS011;18103;52.246;8.052;2023-04-01T04:46:34;0.60;;;0.60;;
31482;SDS011;18103;52.246;8.052;2023-04-01T04:49:01;0.47;;;0.47;;
31482;SDS011;18103;52.246;8.052;2023-04-01T04:51:28;0.80;;;0.50;;
31482;SDS011;18103;52.246;8.052;2023-04-01T04:53:54;0.40;;;0.40;;
31482;SDS011;18103;52.246;8.052;2023-04-01T04:56:20;1.20;;;0.50;;
31482;SDS011;18103;52.246;8.052;2023-04-01T04:58:46;3.60;;;0.40;;
31482;SDS011;18103;52.246;8.052;2023-04-01T05:01:15;0.50;;;0.43;;
31482;SDS011;18103;52.246;8.052;2023-04-01T05:03:41;0.80;;;0.70;;
31482;SDS011;18103;52.246;8.052;2023-04-01T05:06:07;0.63;;;0.60;;
31482;SDS011;18103;52.246;8.052;2023-04-01T05:08:34;1.00;;;0.70;;
31482;SDS011;18103;52.246;8.052;2023-04-01T05:11:01;1.73;;;1.03;;
31482;SDS011;18103;52.246;8.052;2023-04-01T05:13:32;4.40;;;0.83;;
31482;SDS011;18103;52.246;8.052;2023-04-01T05:15:57;1.73;;;0.80;;
31482;SDS011;18103;52.246;8.052;2023-04-01T05:18:22;2.53;;;0.93;;
31482;SDS011;18103;52.246;8.052;2023-04-01T05:20:51;1.97;;;1.40;;
31482;SDS011;18103;52.246;8.052;2023-04-01T05:23:17;4.93;;;1.67;;
31482;SDS011;18103;52.246;8.052;2023-04-01T05:25:46;3.93;;;1.47;;
31482;SDS011;18103;52.246;8.052;2023-04-01T05:28:12;1.83;;;1.10;;
31482;SDS011;18103;52.246;8.052;2023-04-01T05:30:43;5.13;;;1.60;;
31482;SDS011;18103;52.246;8.052;2023-04-01T05:33:09;4.23;;;1.77;;
31482;SDS011;18103;52.246;8.052;2023-04-01T05:35:36;8.03;;;1.50;;
31482;SDS011;18103;52.246;8.052;2023-04-01T05:38:01;3.40;;;1.63;;
31482;SDS011;18103;52.246;8.052;2023-04-01T05:40:28;3.97;;;2.00;;
31482;SDS011;18103;52.246;8.052;2023-04-01T05:42:54;1.80;;;1.17;;
31482;SDS011;18103;52.246;8.052;2023-04-01T05:45:22;1.77;;;1.17;;
31482;SDS011;18103;52.246;8.052;2023-04-01T05:47:47;1.63;;;0.67;;
31482;SDS011;18103;52.246;8.052;2023-04-01T05:50:15;2.73;;;1.37;;
31482;SDS011;18103;52.246;8.052;2023-04-01T05:52:42;5.87;;;1.93;;
31482;SDS011;18103;52.246;8.052;2023-04-01T05:55:09;3.07;;;1.80;;
31482;SDS011;18103;52.246;8.052;2023-04-01T05:57:37;2.83;;;1.47;;
31482;SDS011;18103;52.246;8.052;2023-04-01T06:00:07;3.00;;;1.40;;
31482;SDS011;18103;52.246;8.052;2023-04-01T06:02:35;2.57;;;1.70;;
31482;SDS011;18103;52.246;8.052;2023-04-01T06:05:24;4.17;;;2.43;;
31482;SDS011;18103;52.246;8.052;2023-04-01T06:07:55;2.77;;;1.80;;
31482;SDS011;18103;52.246;8.052;2023-04-01T06:10:33;2.13;;;1.80;;
31482;SDS011;18103;52.246;8.052;2023-04-01T06:16:36;2.40;;;1.87;;
31482;SDS011;18103;52.246;8.052;2023-04-01T06:19:24;2.30;;;2.10;;
31482;SDS011;18103;52.246;8.052;2023-04-01T06:24:46;5.50;;;1.93;;
31482;SDS011;18103;52.246;8.052;2023-04-01T06:36:12;3.53;;;1.87;;
31482;SDS011;18103;52.246;8.052;2023-04-01T06:38:57;5.00;;;1.17;;
31482;SDS011;18103;52.246;8.052;2023-04-01T06:44:39;2.07;;;1.20;;
31482;SDS011;18103;52.246;8.052;2023-04-01T06:47:27;3.57;;;1.30;;
31482;SDS011;18103;52.246;8.052;2023-04-01T06:52:47;1.90;;;1.37;;
31482;SDS011;18103;52.246;8.052;2023-04-01T06:55:32;3.63;;;1.23;;
31482;SDS011;18103;52.246;8.052;2023-04-01T06:58:06;5.97;;;1.63;;
31482;SDS011;18103;52.246;8.052;2023-04-01T07:00:43;3.33;;;1.53;;
31482;SDS011;18103;52.246;8.052;2023-04-01T07:05:47;3.60;;;1.40;;
31482;SDS011;18103;52.246;8.052;2023-04-01T07:08:20;2.57;;;1.00;;
31482;SDS011;18103;52.246;8.052;2023-04-01T07:10:52;1.90;;;1.20;;
31482;SDS011;18103;52.246;8.052;2023-04-01T07:13:27;1.40;;;1.00;;
31482;SDS011;18103;52.246;8.052;2023-04-01T07:21:15;2.13;;;1.50;;
31482;SDS011;18103;52.246;8.052;2023-04-01T07:23:54;2.17;;;1.50;;
31482;SDS011;18103;52.246;8.052;2023-04-01T07:26:25;3.17;;;2.10;;
31482;SDS011;18103;52.246;8.052;2023-04-01T07:28:52;4.27;;;1.83;;
31482;SDS011;18103;52.246;8.052;2023-04-01T07:31:22;1.57;;;1.17;;
31482;SDS011;18103;52.246;8.052;2023-04-01T07:37:26;3.53;;;1.30;;
31482;SDS011;18103;52.246;8.052;2023-04-01T07:45:42;3.10;;;1.57;;
31482;SDS011;18103;52.246;8.052;2023-04-01T08:05:00;2.07;;;1.50;;
31482;SDS011;18103;52.246;8.052;2023-04-01T08:07:40;2.83;;;1.37;;
31482;SDS011;18103;52.246;8.052;2023-04-01T08:10:33;1.63;;;1.53;;
31482;SDS011;18103;52.246;8.052;2023-04-01T08:15:52;3.43;;;1.80;;
31482;SDS011;18103;52.246;8.052;2023-04-01T08:21:03;2.10;;;1.70;;
31482;SDS011;18103;52.246;8.052;2023-04-01T08:23:40;1.60;;;1.30;;
31482;SDS011;18103;52.246;8.052;2023-04-01T08:29:15;2.07;;;1.57;;
31482;SDS011;18103;52.246;8.052;2023-04-01T08:31:51;2.60;;;1.07;;
31482;SDS011;18103;52.246;8.052;2023-04-01T08:34:25;0.77;;;0.63;;
31482;SDS011;18103;52.246;8.052;2023-04-01T08:37:00;1.43;;;1.30;;
31482;SDS011;18103;52.246;8.052;2023-04-01T08:39:39;1.10;;;1.00;;
31482;SDS011;18103;52.246;8.052;2023-04-01T08:56:13;1.17;;;1.00;;
31482;SDS011;18103;52.246;8.052;2023-04-01T08:58:47;1.30;;;0.90;;
31482;SDS011;18103;52.246;8.052;2023-04-01T09:07:20;3.67;;;1.37;;
31482;SDS011;18103;52.246;8.052;2023-04-01T09:21:21;5.67;;;2.43;;
31482;SDS011;18103;52.246;8.052;2023-04-01T09:37:19;4.30;;;3.10;;
31482;SDS011;18103;52.246;8.052;2023-04-01T09:50:59;3.70;;;2.33;;
31482;SDS011;18103;52.246;8.052;2023-04-01T09:56:09;9.73;;;3.13;;
31482;SDS011;18103;52.246;8.052;2023-04-01T10:07:51;4.40;;;2.80;;
31482;SDS011;18103;52.246;8.052;2023-04-01T10:10:57;3.83;;;2.90;;
31482;SDS011;18103;52.246;8.052;2023-04-01T10:16:30;2.27;;;1.70;;
31482;SDS011;18103;52.246;8.052;2023-04-01T10:25:01;6.27;;;2.30;;
31482;SDS011;18103;52.246;8.052;2023-04-01T10:43:55;2.30;;;1.93;;
31482;SDS011;18103;52.246;8.052;2023-04-01T10:55:27;2.70;;;2.03;;
31482;SDS011;18103;52.246;8.052;2023-04-01T10:58:29;2.50;;;1.70;;
31482;SDS011;18103;52.246;8.052;2023-04-01T11:01:21;2.60;;;2.10;;
31482;SDS011;18103;52.246;8.052;2023-04-01T11:21:50;2.80;;;1.80;;
31482;SDS011;18103;52.246;8.052;2023-04-01T11:32:21;4.40;;;2.93;;
31482;SDS011;18103;52.246;8.052;2023-04-01T11:43:16;4.80;;;2.47;;
31482;SDS011;18103;52.246;8.052;2023-04-01T12:30:42;4.07;;;2.80;;
31482;SDS011;18103;52.246;8.052;2023-04-01T12:49:59;3.40;;;2.73;;
31482;SDS011;18103;52.246;8.052;2023-04-01T12:52:38;5.00;;;2.93;;
31482;SDS011;18103;52.246;8.052;2023-04-01T12:55:25;3.30;;;2.50;;
31482;SDS011;18103;52.246;8.052;2023-04-01T13:28:05;1.77;;;1.63;;
31482;SDS011;18103;52.246;8.052;2023-04-01T13:30:39;2.70;;;1.40;;
31482;SDS011;18103;52.246;8.052;2023-04-01T13:45:02;2.00;;;1.80;;
31482;SDS011;18103;52.246;8.052;2023-04-01T13:56:08;2.00;;;1.23;;
31482;SDS011;18103;52.246;8.052;2023-04-01T13:58:58;1.93;;;1.13;;
31482;SDS011;18103;52.246;8.052;2023-04-01T14:15:29;1.43;;;1.33;;
31482;SDS011;18103;52.246;8.052;2023-04-01T14:18:32;2.53;;;1.50;;
31482;SDS011;18103;52.246;8.052;2023-04-01T14:34:39;2.63;;;0.90;;
31482;SDS011;18103;52.246;8.052;2023-04-01T14:50:41;1.20;;;1.00;;
31482;SDS011;18103;52.246;8.052;2023-04-01T14:53:13;1.00;;;1.00;;
31482;SDS011;18103;52.246;8.052;2023-04-01T14:55:47;0.93;;;0.77;;
31482;SDS011;18103;52.246;8.052;2023-04-01T14:58:15;3.50;;;1.00;;
31482;SDS011;18103;52.246;8.052;2023-04-01T15:03:24;1.00;;;0.80;;
31482;SDS011;18103;52.246;8.052;2023-04-01T15:31:02;1.80;;;1.00;;
31482;SDS011;18103;52.246;8.052;2023-04-01T15:36:56;0.70;;;0.70;;
31482;SDS011;18103;52.246;8.052;2023-04-01T15:48:01;0.60;;;0.60;;
31482;SDS011;18103;52.246;8.052;2023-04-01T15:55:50;0.43;;;0.43;;
31482;SDS011;18103;52.246;8.052;2023-04-01T16:14:19;0.30;;;0.30;;
31482;SDS011;18103;52.246;8.052;2023-04-01T16:19:56;0.97;;;0.50;;
31482;SDS011;18103;52.246;8.052;2023-04-01T16:25:19;0.40;;;0.40;;
31482;SDS011;18103;52.246;8.052;2023-04-01T16:28:15;2.37;;;0.80;;
31482;SDS011;18103;52.246;8.052;2023-04-01T16:31:04;0.80;;;0.57;;
31482;SDS011;18103;52.246;8.052;2023-04-01T16:44:25;0.90;;;0.50;;
31482;SDS011;18103;52.246;8.052;2023-04-01T16:46:53;0.50;;;0.50;;
31482;SDS011;18103;52.246;8.052;2023-04-01T16:49:30;0.50;;;0.43;;
31482;SDS011;18103;52.246;8.052;2023-04-01T17:02:44;0.70;;;0.57;;
31482;SDS011;18103;52.246;8.052;2023-04-01T17:05:17;1.20;;;0.73;;
31482;SDS011;18103;52.246;8.052;2023-04-01T17:18:50;0.60;;;0.40;;
31482;SDS011;18103;52.246;8.052;2023-04-01T17:30:17;1.00;;;0.80;;
31482;SDS011;18103;52.246;8.052;2023-04-01T17:47:11;2.67;;;1.00;;
31482;SDS011;18103;52.246;8.052;2023-04-01T17:49:39;0.90;;;0.70;;
31482;SDS011;18103;52.246;8.052;2023-04-01T17:55:05;0.47;;;0.47;;
31482;SDS011;18103;52.246;8.052;2023-04-01T17:57:55;0.50;;;0.50;;
31482;SDS011;18103;52.246;8.052;2023-04-01T18:23:27;0.87;;;0.70;;
31482;SDS011;18103;52.246;8.052;2023-04-01T18:26:13;0.63;;;0.40;;
31482;SDS011;18103;52.246;8.052;2023-04-01T18:31:18;1.60;;;1.10;;
31482;SDS011;18103;52.246;8.052;2023-04-01T18:39:03;4.20;;;1.30;;
31482;SDS011;18103;52.246;8.052;2023-04-01T18:44:48;0.90;;;0.77;;
31482;SDS011;18103;52.246;8.052;2023-04-01T18:49:55;2.03;;;1.00;;
31482;SDS011;18103;52.246;8.052;2023-04-01T18:52:37;1.40;;;1.07;;
31482;SDS011;18103;52.246;8.052;2023-04-01T18:57:45;1.37;;;1.27;;
31482;SDS011;18103;52.246;8.052;2023-04-01T19:00:22;0.80;;;0.80;;
31482;SDS011;18103;52.246;8.052;2023-04-01T19:05:36;1.73;;;1.00;;
31482;SDS011;18103;52.246;8.052;2023-04-01T19:08:27;0.63;;;0.50;;
31482;SDS011;18103;52.246;8.052;2023-04-01T19:17:15;1.67;;;0.80;;
31482;SDS011;18103;52.246;8.052;2023-04-01T19:19:56;1.40;;;0.90;;
31482;SDS011;18103;52.246;8.052;2023-04-01T19:25:23;0.77;;;0.70;;
31482;SDS011;18103;52.246;8.052;2023-04-01T19:30:56;2.87;;;1.07;;
31482;SDS011;18103;52.246;8.052;2023-04-01T19:38:40;1.50;;;1.13;;
31482;SDS011;18103;52.246;8.052;2023-04-01T19:43:39;0.50;;;0.50;;
31482;SDS011;18103;52.246;8.052;2023-04-01T19:59:21;0.87;;;0.50;;
31482;SDS011;18103;52.246;8.052;2023-04-01T20:02:16;0.70;;;0.70;;
31482;SDS011;18103;52.246;8.052;2023-04-01T20:04:51;1.13;;;0.60;;
31482;SDS011;18103;52.246;8.052;2023-04-01T20:07:26;1.07;;;0.70;;
31482;SDS011;18103;52.246;8.052;2023-04-01T20:10:42;1.57;;;0.70;;
31482;SDS011;18103;52.246;8.052;2023-04-01T20:15:36;1.10;;;0.60;;
31482;SDS011;18103;52.246;8.052;2023-04-01T20:18:12;0.73;;;0.60;;
31482;SDS011;18103;52.246;8.052;2023-04-01T20:20:51;0.67;;;0.60;;
31482;SDS011;18103;52.246;8.052;2023-04-01T20:26:12;0.50;;;0.47;;
31482;SDS011;18103;52.246;8.052;2023-04-01T20:31:12;2.87;;;0.90;;
31482;SDS011;18103;52.246;8.052;2023-04-01T20:45:01;0.87;;;0.50;;
31482;SDS011;18103;52.246;8.052;2023-04-01T20:50:51;1.87;;;0.50;;
31482;SDS011;18103;52.246;8.052;2023-04-01T21:07:41;0.70;;;0.70;;
31482;SDS011;18103;52.246;8.052;2023-04-01T21:12:53;0.67;;;0.63;;
31482;SDS011;18103;52.246;8.052;2023-04-01T21:32:36;1.63;;;1.00;;
31482;SDS011;18103;52.246;8.052;2023-04-01T22:22:01;2.20;;;1.43;;
31482;SDS011;18103;52.246;8.052;2023-04-01T22:44:22;4.57;;;1.40;;
31482;SDS011;18103;52.246;8.052;2023-04-01T22:49:54;2.17;;;1.47;;
31482;SDS011;18103;52.246;8.052;2023-04-01T22:55:09;3.97;;;1.50;;
31482;SDS011;18103;52.246;8.052;2023-04-01T23:00:38;2.83;;;1.00;;
31482;SDS011;18103;52.246;8.052;2023-04-01T23:06:02;1.50;;;1.40;;
31482;SDS011;18103;52.246;8.052;2023-04-01T23:08:39;4.90;;;2.10;;
31482;SDS011;18103;52.246;8.052;2023-04-01T23:11:23;1.33;;;1.23;;
31482;SDS011;18103;52.246;8.052;2023-04-01T23:28:43;3.97;;;1.20;;
31482;SDS011;18103;52.246;8.052;2023-04-01T23:33:19;5.43;;;2.00;;
31482;SDS011;18103;52.246;8.052;2023-04-01T23:38:16;3.53;;;2.23;;
31482;SDS011;18103;52.246;8.052;2023-04-01T23:40:42;2.67;;;1.97;;
31482;SDS011;18103;52.246;8.052;2023-04-01T23:43:15;2.77;;;1.80;;
31482;SDS011;18103;52.246;8.052;2023-04-01T23:45:54;3.93;;;1.43;;
31482;SDS011;18103;52.246;8.052;2023-04-01T23:48:24;3.00;;;2.03;;
31482;SDS011;18103;52.246;8.052;2023-04-01T23:51:35;3.97;;;1.90;;
31482;SDS011;18103;52.246;8.052;2023-04-01T23:56:50;6.27;;;2.10;;
31482;SDS011;18103;52.246;8.052;2023-04-01T23:59:27;5.33;;;1.97;;
